普天間飛行場の過去48時間の天気

普天間飛行場 (Futema)

現在時刻: 9/28 18:58 JST (9/28 09:58 UTC) 以下の時間は現地時間です。

過去48時間のMETAR気象情報
時間 風向 風速(m/s) 視程 気温(℃) 湿度(%) 気圧(hPa) 天気現象
28 15:56 北北西 2 10km以上 27.2 56 1006.6
28 12:56 北西 4 10km以上 28.9 55 1007.5
28 10:56 静穏 0 10km以上 27.8 60 1008.9
28 09:56 北西 2 9000m 26.1 82 1010 弱いしゅう雨
28 07:56 2 9000m 25 84 1009.5 もや
28 06:56 2 9000m 23.9 90 1009 弱いしゅう雨 もや
28 05:56 北北東 2 9000m 23.3 94 1009.3 弱いしゅう雨 もや
28 04:56 北北東 2 9000m 23.3 91 1008.8 弱いしゅう雨 もや
ROTM 280656Z 33004KT 9999 SCT025 SCT070 BKN140 27/18 A2977 RMK SLP066 T02720178
ROTM 280356Z 32007KT 9999 SCT025 BKN130 29/19 A2980 RMK SLP075 T02890189
ROTM 280156Z COR 00000KT 9999 SCT025 BKN090 27/19 A2984 RMK SHRAB48E51 SLP089 P0003 T02780194
ROTM 280056Z 32004KT 9000 -SHRA SCT025 BKN050 OVC170 26/23 A2987 RMK SHRAB48 SLP100 P0000 T02610228
ROTM 272256Z 08003KT 9000 BR FEW030 BKN050 OVC180 25/22 A2986 RMK SHRAE10 SLP095 T02500222
ROTM 272156Z 09004KT 9000 -SHRA BR SCT050 BKN050 OVC180 24/22 A2984 RMK SLP090 P0002 T02390222
ROTM 272056Z 03003KT 9000 -SHRA BR FEW025 SCT080 BKN110 23/22 A2985 RMK SLP093 P0005 60006 T02330222 53007
ROTM 271956Z 02003KT 9000 -SHRA BR FEW030 SCT080 BKN110 23/22 A2984 RMK SHRAB02 SLP088 P0001 T02330217